モンテビデオ の空港の天気 - METARとTAF

カラスコ国際空港 ( SUMU / MVD ) - ウルグアイ モンテビデオ
飛行場実況気象(Metar)
観測時間05/28 01:00 UYT (05/28 04:00 UTC)
風向・風速北 5m/s
視程10km以上
天気現象
なし
気温13℃
湿度77%
気圧1015hPa
METARSUMU 280400Z 35009KT CAVOK 13/09 Q1015 NOSIG
過去の天気等 Google飛行場航空写真 Wunderground天気予報

過去48時間のMETAR

飛行場予報(TAF)
発表時間: 5/27 20:10 UYT (5/27 23:10 UTC)
予報対象時間: 27日21時 UYT ~ 28日21時 UYT
風向・風速北 3m/s
視程10km以上
なし
28日0時 UYT ~ 28日7時 UYT に一時的に
視程3000m
天気現象もや
なし
TAF SUMU 272310Z 2800/2824 35005KT CAVOK TX20/2818Z TN09/2810Z
TEMPO 2803/2810 3000 BR NSC